Time;durP1;ratioP1;P1;durP2;ratioP2;P2;SDS_P1;SDS_P2;PMS_P1;PMS_P2;Temp;Humidity;BMP_temperature;BMP_pressure;BME280_temperature;BME280_humidity;BME280_pressure;Samples;Min_cycle;Max_cycle;Signal;HPM_P1;HPM_P2
2020/12/07 00:01:53;;;;;;;8.07;5.13;;;1.60;99.90;;;;;;5110115;28;20153;-77
2020/12/07 00:04:19;;;;;;;8.35;5.60;;;1.60;99.90;;;;;;5110248;28;20035;-76
2020/12/07 00:06:45;;;;;;;8.05;5.85;;;1.60;99.90;;;;;;5113899;28;20036;-75
2020/12/07 00:09:11;;;;;;;8.93;5.38;;;1.60;99.90;;;;;;5103716;28;20054;-74
2020/12/07 00:11:36;;;;;;;9.45;5.85;;;1.60;99.90;;;;;;5109670;28;20039;-73
2020/12/07 00:14:02;;;;;;;7.95;5.15;;;1.60;99.90;;;;;;5092384;28;20027;-74
2020/12/07 00:16:28;;;;;;;7.45;4.95;;;1.60;99.90;;;;;;5110510;28;20511;-74
2020/12/07 00:18:53;;;;;;;9.25;5.72;;;1.60;99.90;;;;;;5110888;28;20027;-74
2020/12/07 00:21:19;;;;;;;7.38;5.07;;;1.70;99.90;;;;;;5113290;28;20472;-73
2020/12/07 00:23:45;;;;;;;8.75;5.03;;;1.70;99.90;;;;;;5113017;28;20470;-73
2020/12/07 00:26:11;;;;;;;8.02;4.78;;;1.70;99.90;;;;;;5117568;27;20088;-74
2020/12/07 00:28:38;;;;;;;5.68;4.22;;;1.70;99.90;;;;;;5124111;27;20034;-73
2020/12/07 00:31:05;;;;;;;6.60;4.90;;;1.70;99.90;;;;;;5117578;27;20055;-74
2020/12/07 00:33:31;;;;;;;7.63;5.20;;;1.70;99.90;;;;;;5122495;27;20039;-73
2020/12/07 00:35:56;;;;;;;9.10;5.80;;;1.70;99.90;;;;;;5118767;27;20026;-74
2020/12/07 00:38:22;;;;;;;6.32;4.65;;;1.70;99.90;;;;;;5122112;27;20098;-74
2020/12/07 00:40:48;;;;;;;7.90;4.95;;;1.70;99.90;;;;;;5121968;27;20027;-74
2020/12/07 00:43:13;;;;;;;7.75;5.25;;;1.70;99.90;;;;;;5123283;27;20040;-74
2020/12/07 00:45:39;;;;;;;6.82;5.07;;;1.70;99.90;;;;;;5103088;27;20479;-74
2020/12/07 00:48:05;;;;;;;7.05;4.82;;;1.70;99.90;;;;;;5122037;27;20483;-73
2020/12/07 00:50:30;;;;;;;6.82;4.30;;;1.70;99.90;;;;;;5122179;27;20032;-73
2020/12/07 00:52:56;;;;;;;6.10;4.38;;;1.80;99.90;;;;;;5122229;27;20050;-74
2020/12/07 00:55:22;;;;;;;7.72;4.63;;;1.80;99.90;;;;;;5121263;27;20373;-74
2020/12/07 00:57:47;;;;;;;6.47;4.50;;;1.70;99.90;;;;;;5122482;27;20527;-74
2020/12/07 01:00:13;;;;;;;7.75;4.57;;;1.80;99.90;;;;;;5107175;27;20035;-74
2020/12/07 01:02:39;;;;;;;6.97;3.72;;;1.80;99.90;;;;;;5103301;27;20023;-74
2020/12/07 01:05:05;;;;;;;7.30;4.15;;;1.80;99.90;;;;;;5124210;27;20032;-74
2020/12/07 01:07:31;;;;;;;5.10;3.83;;;1.80;99.90;;;;;;5122055;27;20031;-74
2020/12/07 01:09:56;;;;;;;5.25;3.67;;;1.80;99.90;;;;;;5121298;27;20347;-73
2020/12/07 01:12:22;;;;;;;6.57;4.20;;;1.80;99.90;;;;;;5103883;27;20061;-74
2020/12/07 01:14:50;;;;;;;5.57;4.10;;;1.80;99.90;;;;;;5119393;27;20507;-74
2020/12/07 01:17:17;;;;;;;6.93;3.92;;;1.80;99.90;;;;;;5123123;27;20027;-74
2020/12/07 01:19:43;;;;;;;4.95;3.72;;;1.80;99.90;;;;;;5117623;27;20035;-74
2020/12/07 01:22:09;;;;;;;5.47;3.55;;;1.80;99.90;;;;;;5121127;27;20019;-75
2020/12/07 01:24:34;;;;;;;6.78;4.50;;;1.80;99.90;;;;;;5120929;27;20479;-74
2020/12/07 01:27:00;;;;;;;6.22;4.13;;;1.80;99.90;;;;;;5119580;27;20172;-74
2020/12/07 01:29:26;;;;;;;6.78;4.60;;;1.80;99.90;;;;;;5100615;27;20105;-74
2020/12/07 01:31:52;;;;;;;8.30;4.78;;;1.80;99.90;;;;;;5121548;27;20083;-74
2020/12/07 01:34:17;;;;;;;5.72;4.38;;;1.80;99.90;;;;;;5122070;27;20514;-74
2020/12/07 01:36:43;;;;;;;6.35;4.50;;;1.80;99.90;;;;;;5119004;27;20724;-74
2020/12/07 01:39:09;;;;;;;6.55;5.00;;;1.70;99.90;;;;;;5104336;27;20540;-74
2020/12/07 01:41:34;;;;;;;7.82;4.93;;;1.70;99.90;;;;;;5102325;27;20127;-74
2020/12/07 01:44:00;;;;;;;6.20;4.63;;;1.80;99.90;;;;;;5119125;27;20530;-74
2020/12/07 01:46:26;;;;;;;8.65;5.18;;;1.70;99.90;;;;;;5102043;27;20480;-74
2020/12/07 01:48:56;;;;;;;6.03;4.72;;;1.70;99.90;;;;;;5102277;27;20038;-74
2020/12/07 01:51:22;;;;;;;7.40;4.83;;;1.70;99.90;;;;;;5107797;27;20110;-74
2020/12/07 01:53:49;;;;;;;7.03;5.07;;;1.70;99.90;;;;;;5112480;27;20871;-74
2020/12/07 01:56:29;;;;;;;7.68;5.45;;;1.70;99.90;;;;;;5112437;28;20463;-74
2020/12/07 01:58:59;;;;;;;8.05;5.60;;;1.70;99.90;;;;;;5111708;28;20028;-74
2020/12/07 02:01:26;;;;;;;7.18;5.35;;;1.80;99.90;;;;;;5112928;28;20346;-74
2020/12/07 02:03:53;;;;;;;6.45;4.72;;;1.80;99.90;;;;;;5110076;28;20438;-73
2020/12/07 02:06:18;;;;;;;5.63;4.38;;;1.80;99.90;;;;;;5113627;27;20028;-74
2020/12/07 02:08:48;;;;;;;6.93;5.10;;;1.90;99.90;;;;;;5111736;28;20024;-73
2020/12/07 02:11:14;;;;;;;8.57;5.40;;;1.80;99.90;;;;;;5111933;28;20458;-72
2020/12/07 02:13:40;;;;;;;9.32;5.90;;;1.80;99.90;;;;;;5111566;28;20292;-73
2020/12/07 02:16:05;;;;;;;6.88;5.13;;;1.80;99.90;;;;;;5093938;28;20026;-72
2020/12/07 02:18:31;;;;;;;8.27;6.05;;;1.80;99.90;;;;;;5112250;28;20431;-73
2020/12/07 02:20:57;;;;;;;7.38;5.57;;;1.80;99.90;;;;;;5111523;28;20079;-72
2020/12/07 02:23:22;;;;;;;9.80;6.32;;;1.80;99.90;;;;;;5112505;28;20032;-72
2020/12/07 02:25:48;;;;;;;8.10;6.20;;;1.80;99.90;;;;;;5111554;28;20031;-73
2020/12/07 02:28:14;;;;;;;7.80;5.57;;;1.80;99.90;;;;;;5112345;28;20099;-73
2020/12/07 02:30:39;;;;;;;8.45;6.63;;;1.70;99.90;;;;;;5111383;28;20027;-72
2020/12/07 02:33:05;;;;;;;6.60;5.40;;;1.80;99.90;;;;;;5111818;28;20502;-72
2020/12/07 02:35:31;;;;;;;6.13;5.10;;;1.80;99.90;;;;;;5112309;28;20024;-72
2020/12/07 02:37:56;;;;;;;5.95;4.85;;;1.80;99.90;;;;;;5111097;28;20055;-73
2020/12/07 03:22:16;;;;;;;5.28;4.47;;;1.80;99.90;;;;;;5357275;22;20091;-73
2020/12/07 03:24:42;;;;;;;7.53;5.07;;;1.70;99.90;;;;;;5073974;28;20105;-74
2020/12/07 03:27:07;;;;;;;6.07;4.22;;;1.70;99.90;;;;;;5081860;28;20631;-74
2020/12/07 03:29:33;;;;;;;6.85;5.00;;;1.70;99.90;;;;;;5090658;28;20069;-74
2020/12/07 03:31:59;;;;;;;5.95;4.65;;;1.60;99.90;;;;;;5084797;28;20048;-74
2020/12/07 03:34:25;;;;;;;6.60;4.63;;;1.60;99.90;;;;;;5090689;28;20036;-74
2020/12/07 03:36:51;;;;;;;6.20;4.40;;;1.60;99.90;;;;;;5083132;28;20182;-74
2020/12/07 03:39:16;;;;;;;8.35;4.95;;;1.60;99.90;;;;;;5071154;28;20025;-74
2020/12/07 03:41:42;;;;;;;7.43;4.63;;;1.60;99.90;;;;;;5076417;28;20020;-74
2020/12/07 03:44:08;;;;;;;7.57;4.18;;;1.60;99.90;;;;;;5089422;28;20642;-75
2020/12/07 03:46:33;;;;;;;7.63;4.00;;;1.70;99.90;;;;;;5072328;28;20031;-75
2020/12/07 03:48:59;;;;;;;5.32;4.18;;;1.60;99.90;;;;;;5079068;28;20055;-75
2020/12/07 03:51:25;;;;;;;6.00;4.50;;;1.60;99.90;;;;;;5073132;28;20020;-75
2020/12/07 03:53:51;;;;;;;7.20;4.55;;;1.60;99.90;;;;;;5087911;28;20024;-75
2020/12/07 03:56:17;;;;;;;5.35;4.10;;;1.60;99.90;;;;;;5093932;28;20127;-74
2020/12/07 03:58:42;;;;;;;6.28;4.43;;;1.60;99.90;;;;;;5094488;28;20028;-75
2020/12/07 04:01:09;;;;;;;7.38;5.35;;;1.60;99.90;;;;;;5079017;28;20032;-76
2020/12/07 04:03:36;;;;;;;6.15;4.60;;;1.60;99.90;;;;;;5074867;28;20058;-75
2020/12/07 04:06:13;;;;;;;7.80;5.53;;;1.50;99.90;;;;;;5084684;28;20110;-75
2020/12/07 04:08:38;;;;;;;6.15;4.80;;;1.50;99.90;;;;;;5085426;28;20036;-75
2020/12/07 04:11:04;;;;;;;7.78;5.47;;;1.50;99.90;;;;;;5085372;28;20058;-74
2020/12/07 04:13:30;;;;;;;7.72;4.95;;;1.50;99.90;;;;;;5076673;28;20036;-74
2020/12/07 04:15:56;;;;;;;6.10;4.40;;;1.60;99.90;;;;;;5073783;28;20119;-74
2020/12/07 04:18:22;;;;;;;5.85;4.57;;;1.60;99.90;;;;;;5077671;28;20131;-74
2020/12/07 04:20:48;;;;;;;8.38;5.80;;;1.60;99.90;;;;;;5075552;28;20051;-74
2020/12/07 04:23:13;;;;;;;6.97;5.45;;;1.50;99.90;;;;;;5075566;28;20082;-75
2020/12/07 04:25:39;;;;;;;7.68;4.72;;;1.60;99.90;;;;;;5076800;28;20104;-76
2020/12/07 04:28:05;;;;;;;7.85;5.38;;;1.60;99.90;;;;;;5073315;28;20044;-75
2020/12/07 04:30:30;;;;;;;6.55;5.18;;;1.60;99.90;;;;;;5081862;28;20035;-75
2020/12/07 04:32:56;;;;;;;7.18;5.15;;;1.60;99.90;;;;;;5091369;28;20027;-75
2020/12/07 04:35:22;;;;;;;7.75;5.50;;;1.60;99.90;;;;;;5059080;28;20359;-75
2020/12/07 04:37:48;;;;;;;7.68;5.50;;;1.60;99.90;;;;;;5061304;28;20518;-75
2020/12/07 04:40:13;;;;;;;9.10;5.18;;;1.60;99.90;;;;;;5093073;28;20103;-76
2020/12/07 04:42:41;;;;;;;6.93;5.28;;;1.70;99.90;;;;;;5081425;28;20036;-75
2020/12/07 04:45:08;;;;;;;8.45;5.32;;;1.70;99.90;;;;;;5078439;28;20036;-75
2020/12/07 04:47:36;;;;;;;8.35;5.35;;;1.70;99.90;;;;;;5075419;28;20035;-75
2020/12/07 04:50:05;;;;;;;7.25;5.47;;;1.70;99.90;;;;;;5078660;28;20036;-75
2020/12/07 04:52:32;;;;;;;8.50;5.70;;;1.70;99.90;;;;;;5085755;28;20039;-75
2020/12/07 04:55:01;;;;;;;10.85;5.47;;;1.70;99.90;;;;;;5079926;28;20024;-75
2020/12/07 04:57:28;;;;;;;8.13;5.38;;;1.70;99.90;;;;;;5091462;28;20024;-75
2020/12/07 04:59:54;;;;;;;8.80;5.47;;;1.70;99.90;;;;;;5072788;28;20021;-75
2020/12/07 05:02:19;;;;;;;9.07;5.55;;;1.70;99.90;;;;;;5065693;28;20469;-74
2020/12/07 05:04:45;;;;;;;9.30;5.82;;;1.70;99.90;;;;;;5077058;28;20042;-75
2020/12/07 05:07:11;;;;;;;9.68;5.78;;;1.70;99.90;;;;;;5077505;28;20059;-75
2020/12/07 05:09:38;;;;;;;12.00;5.82;;;1.80;99.90;;;;;;5073458;28;20475;-75
2020/12/07 05:12:12;;;;;;;8.48;5.45;;;1.80;99.90;;;;;;5080432;28;20031;-75
2020/12/07 05:14:37;;;;;;;8.63;6.15;;;1.80;99.90;;;;;;5079142;28;20496;-75
2020/12/07 05:17:03;;;;;;;9.68;5.75;;;1.80;99.90;;;;;;5086764;28;20024;-75
2020/12/07 05:19:29;;;;;;;9.50;5.72;;;1.80;99.90;;;;;;5092692;28;20060;-74
2020/12/07 05:21:54;;;;;;;9.60;5.90;;;1.80;99.90;;;;;;5073573;28;20036;-74
2020/12/07 05:24:20;;;;;;;11.93;5.75;;;1.80;99.90;;;;;;5063683;28;20456;-74
2020/12/07 05:26:46;;;;;;;10.30;6.20;;;1.80;99.90;;;;;;5092427;28;20074;-75
2020/12/07 05:29:20;;;;;;;9.55;6.18;;;1.90;99.90;;;;;;5091791;28;20024;-75
2020/12/07 05:31:45;;;;;;;9.40;6.10;;;1.90;99.90;;;;;;5092489;28;20055;-75
2020/12/07 05:34:11;;;;;;;9.38;5.93;;;1.80;99.90;;;;;;5088511;28;20102;-74
2020/12/07 05:36:37;;;;;;;10.18;6.05;;;1.90;99.90;;;;;;5074627;28;20024;-75
2020/12/07 05:39:06;;;;;;;8.50;6.15;;;1.80;99.90;;;;;;5072563;28;20025;-75
2020/12/07 05:41:33;;;;;;;9.88;6.43;;;1.90;99.90;;;;;;5073149;28;20029;-75
2020/12/07 05:44:02;;;;;;;12.07;7.18;;;1.80;99.90;;;;;;5074735;28;20040;-74
2020/12/07 05:46:28;;;;;;;9.35;6.03;;;1.80;99.90;;;;;;5088965;28;20073;-75
2020/12/07 05:48:56;;;;;;;13.32;6.88;;;1.80;99.90;;;;;;5081023;28;20039;-74
2020/12/07 05:51:26;;;;;;;9.45;6.50;;;1.80;99.90;;;;;;5054465;28;20474;-75
2020/12/07 05:53:52;;;;;;;16.60;7.05;;;1.80;99.90;;;;;;5078297;28;20086;-75
2020/12/07 05:56:19;;;;;;;10.13;6.78;;;1.80;99.90;;;;;;5079992;28;20048;-75
2020/12/07 05:59:03;;;;;;;10.32;6.60;;;1.80;99.90;;;;;;5076919;28;20070;-75
2020/12/07 06:01:30;;;;;;;11.15;7.22;;;1.80;99.90;;;;;;5077215;28;20028;-74
2020/12/07 06:03:56;;;;;;;8.90;6.38;;;1.90;99.90;;;;;;5059113;28;20121;-74
2020/12/07 06:06:33;;;;;;;10.63;7.40;;;1.90;99.90;;;;;;5077722;28;20052;-75
2020/12/07 06:09:03;;;;;;;11.48;7.18;;;1.90;99.90;;;;;;5071269;28;20031;-74
2020/12/07 06:11:39;;;;;;;10.63;7.32;;;1.90;99.90;;;;;;5072379;28;20158;-74
2020/12/07 06:14:06;;;;;;;11.68;7.43;;;1.90;99.90;;;;;;5082025;28;20047;-75
2020/12/07 06:16:36;;;;;;;15.40;7.90;;;1.90;99.90;;;;;;5087074;28;20475;-74
2020/12/07 06:19:12;;;;;;;12.02;7.95;;;1.90;99.90;;;;;;5090916;28;20028;-75
2020/12/07 06:21:44;;;;;;;11.70;7.00;;;1.90;99.90;;;;;;5091833;28;20028;-74
2020/12/07 06:24:09;;;;;;;12.43;7.82;;;1.90;99.90;;;;;;5083732;28;20446;-74
2020/12/07 06:26:35;;;;;;;11.60;7.47;;;1.80;99.90;;;;;;5054901;28;20059;-74
2020/12/07 06:29:03;;;;;;;11.23;7.50;;;1.80;99.90;;;;;;5078858;28;20084;-74
2020/12/07 06:31:29;;;;;;;11.90;7.93;;;1.90;99.90;;;;;;5083848;28;20024;-74
2020/12/07 06:33:55;;;;;;;14.48;8.30;;;1.80;99.90;;;;;;5085899;28;20028;-74
2020/12/07 06:36:24;;;;;;;17.42;9.32;;;1.80;99.90;;;;;;5082631;28;20024;-75
2020/12/07 06:38:51;;;;;;;13.90;7.57;;;1.80;99.90;;;;;;5073711;28;20028;-74
2020/12/07 06:41:28;;;;;;;9.80;7.07;;;1.80;99.90;;;;;;5086028;28;20622;-75
2020/12/07 06:43:58;;;;;;;14.50;7.60;;;1.80;99.90;;;;;;5086193;28;20096;-74
2020/12/07 06:49:48;;;;;;;17.10;8.27;;;1.80;99.90;;;;;;5079762;28;20036;-74
2020/12/07 06:52:20;;;;;;;14.75;8.27;;;1.80;99.90;;;;;;5071901;28;20032;-74
2020/12/07 06:57:48;;;;;;;11.95;8.05;;;2.00;99.90;;;;;;5081421;28;20389;-74
2020/12/07 07:00:17;;;;;;;13.77;9.25;;;1.90;99.90;;;;;;5081670;28;20892;-74
2020/12/07 07:02:45;;;;;;;14.20;8.70;;;1.90;99.90;;;;;;5072677;28;20161;-75
2020/12/07 07:05:12;;;;;;;12.75;8.88;;;2.00;99.90;;;;;;5072993;28;20462;-73
2020/12/07 07:07:38;;;;;;;13.93;8.70;;;1.90;99.90;;;;;;5083316;28;20033;-74
2020/12/07 07:10:06;;;;;;;13.77;8.60;;;2.00;99.90;;;;;;5087019;28;20377;-74
2020/12/07 07:12:32;;;;;;;16.52;8.43;;;2.00;99.90;;;;;;5090986;28;20116;-75
2020/12/07 07:14:58;;;;;;;16.58;9.88;;;2.00;99.90;;;;;;5077850;28;20424;-75
2020/12/07 07:17:29;;;;;;;14.93;9.23;;;2.00;99.90;;;;;;5090497;28;20081;-74
2020/12/07 07:19:56;;;;;;;11.63;7.82;;;2.00;99.90;;;;;;5084791;28;20047;-74
2020/12/07 07:22:22;;;;;;;10.80;7.20;;;2.10;99.90;;;;;;5060079;28;20045;-74
2020/12/07 07:30:05;;;;;;;11.02;7.70;;;2.10;99.90;;;;;;5083159;28;20040;-74
2020/12/07 07:32:32;;;;;;;14.27;7.35;;;2.10;99.90;;;;;;5080590;28;20033;-74
2020/12/07 07:34:58;;;;;;;10.23;7.57;;;2.20;99.90;;;;;;5074869;28;20040;-73
2020/12/07 07:37:24;;;;;;;12.73;7.88;;;2.20;99.90;;;;;;5075595;28;20105;-73
2020/12/07 07:39:59;;;;;;;11.55;7.88;;;2.20;99.90;;;;;;5080517;28;20055;-73
2020/12/07 07:42:25;;;;;;;10.60;6.07;;;2.20;99.90;;;;;;5089270;28;20029;-74
2020/12/07 07:44:51;;;;;;;12.00;7.55;;;2.20;99.90;;;;;;5083596;28;20032;-74
2020/12/07 07:47:27;;;;;;;10.77;7.13;;;2.20;99.90;;;;;;5084269;28;20020;-74
2020/12/07 07:58:54;;;;;;;11.95;6.45;;;2.40;99.90;;;;;;5075953;28;20417;-80
2020/12/07 08:16:58;;;;;;;7.93;4.85;;;2.80;99.90;;;;;;5073775;28;20063;-73
2020/12/07 08:19:27;;;;;;;9.40;4.60;;;2.80;99.90;;;;;;5074916;28;20028;-76
2020/12/07 08:21:52;;;;;;;7.13;4.68;;;2.90;99.90;;;;;;5089442;28;20319;-77
2020/12/07 08:24:18;;;;;;;7.68;5.50;;;3.00;99.90;;;;;;5073170;28;20116;-75
2020/12/07 08:26:44;;;;;;;10.23;4.18;;;3.10;99.90;;;;;;5056246;28;20032;-74
2020/12/07 08:29:11;;;;;;;6.47;5.22;;;3.10;99.90;;;;;;5086362;28;20587;-75
2020/12/07 08:31:38;;;;;;;7.97;4.93;;;3.20;99.90;;;;;;5082284;28;20095;-74
2020/12/07 08:34:08;;;;;;;6.38;4.25;;;3.20;99.90;;;;;;5077633;28;20031;-73
2020/12/07 08:36:35;;;;;;;6.88;4.28;;;3.30;99.90;;;;;;5083403;28;20028;-74
2020/12/07 08:39:01;;;;;;;5.13;4.30;;;3.30;99.90;;;;;;5077975;28;20032;-75
2020/12/07 08:41:28;;;;;;;6.95;4.28;;;3.40;99.90;;;;;;5075720;28;20036;-76
2020/12/07 08:43:57;;;;;;;6.00;4.50;;;3.40;99.90;;;;;;5090759;28;20055;-74
2020/12/07 08:46:25;;;;;;;5.82;4.28;;;3.50;99.90;;;;;;5089462;28;20730;-73
2020/12/07 08:48:51;;;;;;;6.95;4.28;;;3.60;99.90;;;;;;5074216;28;20024;-75
2020/12/07 08:51:25;;;;;;;7.22;4.45;;;3.60;99.90;;;;;;5086432;28;20024;-74
2020/12/07 08:53:51;;;;;;;5.32;4.05;;;3.70;99.90;;;;;;5079833;28;20342;-74
2020/12/07 08:56:17;;;;;;;5.40;4.35;;;3.80;99.90;;;;;;5075772;28;20044;-74
2020/12/07 08:58:43;;;;;;;6.80;4.10;;;3.80;99.90;;;;;;5089601;28;20393;-72
2020/12/07 09:01:10;;;;;;;6.20;4.47;;;3.90;99.90;;;;;;5081744;28;20039;-73
2020/12/07 09:03:37;;;;;;;5.60;4.07;;;4.00;99.90;;;;;;5083485;28;20377;-74
2020/12/07 09:06:04;;;;;;;5.53;3.67;;;4.00;99.90;;;;;;5076667;28;20021;-72
2020/12/07 09:08:30;;;;;;;6.68;4.78;;;4.10;99.90;;;;;;5066742;28;20128;-73
2020/12/07 09:10:56;;;;;;;4.55;3.65;;;4.20;99.90;;;;;;5087254;28;20440;-74
2020/12/07 09:13:25;;;;;;;11.98;4.32;;;4.20;99.90;;;;;;5082666;28;20103;-73
2020/12/07 09:15:52;;;;;;;7.05;3.90;;;4.30;99.90;;;;;;5074660;28;20036;-72
2020/12/07 09:18:19;;;;;;;6.53;3.25;;;4.30;99.90;;;;;;5071811;28;20056;-75
2020/12/07 09:20:44;;;;;;;5.47;3.35;;;4.40;99.90;;;;;;5075109;28;20065;-73
2020/12/07 09:23:10;;;;;;;7.10;3.70;;;4.40;99.90;;;;;;5086168;28;20040;-73
2020/12/07 09:25:36;;;;;;;5.38;3.85;;;4.50;99.90;;;;;;5092153;28;20176;-73
2020/12/07 09:28:01;;;;;;;12.85;4.20;;;4.50;99.90;;;;;;5092085;28;20407;-73
2020/12/07 09:30:27;;;;;;;5.82;4.03;;;4.50;99.90;;;;;;5080404;28;20086;-72
2020/12/07 09:32:53;;;;;;;8.05;4.43;;;4.50;99.90;;;;;;5065237;28;20077;-71
2020/12/07 09:35:18;;;;;;;6.47;4.00;;;4.50;99.90;;;;;;5071656;28;20037;-73
2020/12/07 09:37:44;;;;;;;4.47;3.72;;;4.40;99.90;;;;;;5091662;28;20032;-74
2020/12/07 09:40:13;;;;;;;6.63;4.20;;;4.40;99.90;;;;;;5089621;28;20025;-73
2020/12/07 09:42:40;;;;;;;7.05;4.57;;;4.40;99.90;;;;;;5057166;28;20032;-73
2020/12/07 09:45:07;;;;;;;5.28;4.30;;;4.40;99.90;;;;;;5071580;28;20029;-74
2020/12/07 09:47:33;;;;;;;7.80;4.28;;;4.40;99.90;;;;;;5074543;28;20039;-74
2020/12/07 09:50:00;;;;;;;4.90;4.13;;;4.40;99.90;;;;;;5056315;28;20481;-74
2020/12/07 09:52:26;;;;;;;5.43;3.80;;;4.40;99.90;;;;;;5077964;28;20500;-74
2020/12/07 09:54:51;;;;;;;5.30;3.90;;;4.50;99.90;;;;;;5090984;28;20036;-73
2020/12/07 09:57:17;;;;;;;4.32;3.53;;;4.50;99.90;;;;;;5087813;28;20020;-75
2020/12/07 09:59:46;;;;;;;5.22;3.88;;;4.50;99.90;;;;;;5089905;28;20513;-76
2020/12/07 10:02:12;;;;;;;9.20;3.53;;;4.60;99.90;;;;;;5090004;28;20023;-76
2020/12/07 10:04:37;;;;;;;6.72;3.53;;;4.60;99.90;;;;;;5090836;28;20036;-74
2020/12/07 10:07:03;;;;;;;5.32;3.83;;;4.60;99.90;;;;;;5078969;28;20032;-74
2020/12/07 10:09:29;;;;;;;8.07;4.03;;;4.70;99.90;;;;;;5082826;28;20021;-73
2020/12/07 10:11:55;;;;;;;9.75;4.00;;;4.70;99.90;;;;;;5088976;28;20420;-84
2020/12/07 10:14:20;;;;;;;4.68;3.53;;;4.80;99.90;;;;;;5071732;28;20929;-77
2020/12/07 10:16:46;;;;;;;4.78;3.63;;;4.80;99.90;;;;;;5050574;28;20032;-82
2020/12/07 10:19:12;;;;;;;6.43;4.15;;;4.80;99.90;;;;;;5074081;28;20031;-73
2020/12/07 10:21:39;;;;;;;6.13;3.83;;;4.90;99.90;;;;;;5070850;28;20027;-74
2020/12/07 10:24:05;;;;;;;6.53;3.42;;;4.90;99.90;;;;;;5085520;28;20056;-74
2020/12/07 10:26:31;;;;;;;4.38;3.22;;;5.00;99.90;;;;;;5079349;28;20423;-75
2020/12/07 10:28:57;;;;;;;4.18;3.47;;;5.00;99.90;;;;;;5090770;28;20020;-83
2020/12/07 10:31:23;;;;;;;4.45;3.40;;;5.10;99.90;;;;;;5058309;28;20110;-79
2020/12/07 10:33:50;;;;;;;3.75;3.15;;;5.20;99.90;;;;;;5090648;28;20077;-77
2020/12/07 10:36:17;;;;;;;5.03;2.92;;;5.10;99.90;;;;;;5082744;28;20526;-79
2020/12/07 10:38:44;;;;;;;5.10;2.67;;;5.10;99.90;;;;;;5071145;28;20036;-76
2020/12/07 10:41:10;;;;;;;5.78;2.85;;;5.20;99.90;;;;;;5085210;28;20028;-79
2020/12/07 10:43:37;;;;;;;3.70;3.17;;;5.20;99.90;;;;;;5086522;28;20064;-79
2020/12/07 10:46:02;;;;;;;3.55;3.08;;;5.40;99.90;;;;;;5080655;28;20077;-75
2020/12/07 10:48:28;;;;;;;5.13;2.92;;;5.50;99.90;;;;;;5089496;28;20036;-79
2020/12/07 10:50:54;;;;;;;4.88;3.45;;;5.70;99.90;;;;;;5076376;28;20427;-82
2020/12/07 10:53:19;;;;;;;4.32;2.55;;;5.80;99.90;;;;;;5081981;28;20028;-84
2020/12/07 10:55:45;;;;;;;4.53;3.10;;;5.90;98.20;;;;;;5075335;28;20032;-82
2020/12/07 10:58:11;;;;;;;4.28;3.05;;;6.00;99.90;;;;;;5088461;28;20028;-79
2020/12/07 11:00:37;;;;;;;4.13;2.90;;;6.10;97.40;;;;;;5076392;28;20085;-79
2020/12/07 11:03:04;;;;;;;3.20;2.90;;;6.10;98.80;;;;;;5085774;28;20116;-74
2020/12/07 11:05:31;;;;;;;5.50;2.85;;;6.10;99.40;;;;;;5080049;28;20041;-81
2020/12/07 11:07:57;;;;;;;3.53;2.85;;;6.10;97.50;;;;;;5087416;28;20047;-79
2020/12/07 11:10:23;;;;;;;5.65;3.20;;;6.00;96.80;;;;;;5058763;28;20028;-77
2020/12/07 11:12:57;;;;;;;6.43;3.05;;;6.00;98.30;;;;;;5070843;28;20025;-76
2020/12/07 11:15:23;;;;;;;6.18;4.03;;;5.90;98.60;;;;;;5070764;28;20464;-79
2020/12/07 11:17:49;;;;;;;3.90;3.03;;;5.80;97.60;;;;;;5070886;28;20031;-75
2020/12/07 11:20:14;;;;;;;3.97;2.80;;;5.80;98.90;;;;;;5080667;28;20438;-73
2020/12/07 11:22:41;;;;;;;3.92;3.10;;;5.80;97.90;;;;;;5085087;28;20044;-75
2020/12/07 11:25:06;;;;;;;3.60;3.15;;;5.80;99.90;;;;;;5089944;28;20036;-72
2020/12/07 11:27:32;;;;;;;5.60;2.65;;;5.90;99.90;;;;;;5088870;28;20032;-76
2020/12/07 11:29:57;;;;;;;4.05;2.70;;;6.00;95.40;;;;;;5086573;28;20029;-77
2020/12/07 11:32:23;;;;;;;4.43;2.70;;;6.00;95.20;;;;;;5078082;28;20044;-78
2020/12/07 11:34:49;;;;;;;4.00;3.05;;;5.90;96.30;;;;;;5063625;28;20065;-76
2020/12/07 11:37:14;;;;;;;4.45;2.85;;;5.80;97.10;;;;;;5083366;28;20067;-75
2020/12/07 11:42:29;;;;;;;4.65;2.90;;;5.60;95.50;;;;;;5073887;28;20032;-72
2020/12/07 11:44:54;;;;;;;3.08;2.72;;;5.60;95.60;;;;;;5087823;28;20043;-73
2020/12/07 11:47:21;;;;;;;2.53;2.33;;;5.60;95.10;;;;;;5084962;28;20033;-75
2020/12/07 11:49:48;;;;;;;3.55;2.78;;;5.70;94.20;;;;;;5078069;28;20024;-72
2020/12/07 11:52:14;;;;;;;4.40;2.70;;;5.70;93.50;;;;;;5081168;28;20021;-74
2020/12/07 11:54:40;;;;;;;7.10;3.40;;;5.70;94.10;;;;;;5070480;28;20039;-73
2020/12/07 11:57:06;;;;;;;4.53;2.72;;;5.80;93.80;;;;;;5086175;28;20052;-72
2020/12/07 11:59:33;;;;;;;3.90;2.60;;;5.80;94.40;;;;;;5088541;28;20028;-73
2020/12/07 12:01:59;;;;;;;2.92;2.35;;;5.80;93.30;;;;;;5074364;28;20035;-73
2020/12/07 12:04:24;;;;;;;3.53;2.58;;;5.80;95.10;;;;;;5069664;28;20040;-75
2020/12/07 12:06:50;;;;;;;2.85;2.60;;;5.90;93.20;;;;;;5078658;28;20111;-74
2020/12/07 12:09:16;;;;;;;6.18;3.08;;;5.90;92.40;;;;;;5083795;28;20081;-74
2020/12/07 12:11:45;;;;;;;3.83;2.42;;;6.00;93.20;;;;;;5055599;28;20032;-74
2020/12/07 12:14:11;;;;;;;2.57;2.03;;;6.10;93.40;;;;;;5079471;28;20027;-74
2020/12/07 12:16:39;;;;;;;4.60;2.40;;;6.20;92.60;;;;;;5073862;28;20624;-74
2020/12/07 12:19:12;;;;;;;3.22;2.63;;;6.30;92.20;;;;;;5083898;28;20470;-74
2020/12/07 12:21:41;;;;;;;3.78;2.40;;;6.30;90.50;;;;;;5076736;28;20056;-76
2020/12/07 12:24:06;;;;;;;2.88;2.17;;;6.20;91.20;;;;;;5088009;28;20080;-72
2020/12/07 12:26:36;;;;;;;5.10;2.63;;;6.30;91.20;;;;;;5081038;28;20060;-75
2020/12/07 12:29:03;;;;;;;7.40;5.20;;;6.30;91.40;;;;;;5089164;28;20487;-73
2020/12/07 12:31:29;;;;;;;6.00;2.95;;;6.20;91.00;;;;;;5084521;28;20754;-74
2020/12/07 12:33:56;;;;;;;3.03;2.55;;;6.20;92.10;;;;;;5077189;28;20269;-75
2020/12/07 12:36:24;;;;;;;3.60;3.20;;;6.10;90.90;;;;;;5072989;28;20029;-79
2020/12/07 12:38:50;;;;;;;4.78;3.20;;;6.00;91.30;;;;;;5080532;28;20082;-73
2020/12/07 12:41:16;;;;;;;2.88;2.50;;;5.90;91.40;;;;;;5078939;28;20048;-74
2020/12/07 12:43:43;;;;;;;3.72;2.78;;;5.60;92.80;;;;;;5086157;28;20101;-74
2020/12/07 12:46:09;;;;;;;4.25;3.33;;;5.50;94.10;;;;;;5090847;28;20035;-76
2020/12/07 12:48:35;;;;;;;3.80;3.17;;;5.50;94.10;;;;;;5068311;28;20036;-78
2020/12/07 12:51:02;;;;;;;6.05;3.45;;;5.40;94.10;;;;;;5077525;28;20046;-74
2020/12/07 12:53:28;;;;;;;11.55;3.80;;;5.40;95.00;;;;;;5091954;28;20684;-73
2020/12/07 12:55:54;;;;;;;6.03;2.75;;;5.30;95.20;;;;;;5091664;28;20028;-74
2020/12/07 12:58:20;;;;;;;3.45;2.80;;;5.30;95.20;;;;;;5087901;28;20021;-76
2020/12/07 13:00:46;;;;;;;4.63;3.33;;;5.30;94.90;;;;;;5091766;28;20027;-76
2020/12/07 13:03:12;;;;;;;4.13;3.03;;;5.30;95.60;;;;;;5076343;28;20036;-73
2020/12/07 13:05:38;;;;;;;3.83;2.85;;;5.30;94.90;;;;;;5074895;28;20040;-76
2020/12/07 13:08:04;;;;;;;5.65;2.67;;;5.40;93.20;;;;;;5063311;28;20158;-78
2020/12/07 13:10:29;;;;;;;5.10;2.80;;;5.30;92.80;;;;;;5074066;28;20028;-74
2020/12/07 13:12:55;;;;;;;3.30;2.63;;;5.40;92.50;;;;;;5092992;28;20517;-74
2020/12/07 13:15:22;;;;;;;3.92;2.60;;;5.40;91.90;;;;;;5076565;28;20412;-73
2020/12/07 13:17:55;;;;;;;3.40;2.70;;;5.40;91.90;;;;;;5073671;28;20031;-74
2020/12/07 13:20:27;;;;;;;2.83;2.33;;;5.40;93.70;;;;;;5092392;28;20044;-75
2020/12/07 13:23:07;;;;;;;3.17;2.47;;;5.30;92.30;;;;;;5088732;28;20385;-75
2020/12/07 13:26:00;;;;;;;4.05;2.78;;;5.20;93.40;;;;;;5078486;28;20094;-72
2020/12/07 13:28:26;;;;;;;3.00;2.70;;;5.20;94.10;;;;;;5058062;28;20028;-73
2020/12/07 13:30:53;;;;;;;4.20;2.72;;;5.00;94.10;;;;;;5077469;28;20473;-73
2020/12/07 13:33:19;;;;;;;4.20;2.95;;;5.00;95.10;;;;;;5073116;28;20137;-73
2020/12/07 13:35:44;;;;;;;4.18;3.28;;;4.80;96.00;;;;;;5083534;28;20046;-75
2020/12/07 13:38:11;;;;;;;3.92;3.17;;;4.80;95.70;;;;;;5078340;28;20028;-76
2020/12/07 13:40:37;;;;;;;5.65;2.65;;;4.70;95.80;;;;;;5060715;28;20059;-76
2020/12/07 13:43:04;;;;;;;4.57;3.35;;;4.70;96.30;;;;;;5091804;28;20073;-75
2020/12/07 13:45:33;;;;;;;3.25;2.75;;;4.60;96.90;;;;;;5081819;28;20060;-75
2020/12/07 13:47:59;;;;;;;4.97;3.28;;;4.60;97.80;;;;;;5062435;28;20024;-77
2020/12/07 13:50:27;;;;;;;5.88;3.35;;;4.60;97.90;;;;;;5072416;28;20385;-76
2020/12/07 13:52:52;;;;;;;5.45;3.17;;;4.50;99.30;;;;;;5076792;28;20028;-76
2020/12/07 13:55:19;;;;;;;3.92;3.10;;;4.50;99.20;;;;;;5088707;28;20477;-77
2020/12/07 13:57:45;;;;;;;10.38;3.08;;;4.50;98.40;;;;;;5069500;28;20032;-76
2020/12/07 14:00:11;;;;;;;4.47;3.40;;;4.40;99.20;;;;;;5071633;28;20035;-74
2020/12/07 14:02:37;;;;;;;4.03;3.17;;;4.40;99.70;;;;;;5088337;28;20024;-75
2020/12/07 14:05:05;;;;;;;4.75;3.03;;;4.40;98.20;;;;;;5079992;28;20028;-74
2020/12/07 14:07:31;;;;;;;3.83;2.85;;;4.40;98.30;;;;;;5062452;28;20032;-74
2020/12/07 14:09:58;;;;;;;5.97;2.80;;;4.30;98.90;;;;;;5075058;28;20027;-76
2020/12/07 14:12:24;;;;;;;9.57;3.08;;;4.30;99.90;;;;;;5089970;28;20027;-74
2020/12/07 14:14:53;;;;;;;7.78;3.05;;;4.30;99.20;;;;;;5068071;28;20036;-73